Date,TemperatureHighF,TemperatureAvgF,TemperatureLowF,DewpointHighF,DewpointAvgF,DewpointLowF,HumidityHigh,HumidityAvg,HumidityLow,PressureMaxIn,PressureMinIn,WindSpeedMaxMPH,WindSpeedAvgMPH,GustSpeedMaxMPH,PrecipitationSumIn
2013-11-1,75,56,42,47,38,33,84,53,31,0.00,0.00,5,0,6,0.00
2013-11-2,72,55,42,41,35,30,73,49,32,0.00,0.00,10,2,13,0.00
2013-11-3,64,57,50,35,30,25,37,35,34,0.00,0.00,15,6,17,0.00
2013-11-4,69,57,48,39,30,23,38,35,33,0.00,0.00,14,4,18,0.00
2013-11-5,73,58,42,42,31,21,43,36,31,0.00,0.00,8,1,9,0.00
2013-11-6,70,56,46,39,33,27,54,42,32,0.00,0.00,4,0,5,0.00
2013-11-7,73,59,49,42,35,28,56,42,32,0.00,0.00,8,1,8,0.00
2013-11-8,75,56,43,43,34,29,66,46,31,0.00,0.00,4,0,5,0.00
2013-11-9,75,56,42,43,36,32,74,50,31,0.00,0.00,4,0,5,0.00
2013-11-10,74,55,42,42,36,32,76,51,32,0.00,0.00,6,0,6,0.00
2013-11-11,70,54,39,39,34,28,74,49,32,0.00,0.00,6,0,6,0.00
2013-11-12,73,59,48,42,35,30,58,41,32,0.00,0.00,5,0,6,0.00
2013-11-13,81,59,41,47,37,32,74,47,30,0.00,0.00,9,1,10,0.00
2013-11-14,72,56,45,41,36,30,64,48,32,0.00,0.00,6,0,6,0.00
2013-11-15,68,57,44,38,30,22,42,36,33,0.00,0.00,14,3,15,0.00
2013-11-16,65,53,43,36,30,22,55,41,34,0.00,0.00,8,1,8,0.00
2013-11-17,66,49,37,37,31,28,73,52,34,0.00,0.00,6,0,6,0.00
2013-11-18,61,50,37,40,34,28,77,55,37,0.00,0.00,7,1,9,0.00
2013-11-19,56,54,51,54,50,41,96,89,63,0.00,0.00,9,2,10,0.91
2013-11-20,56,55,51,55,54,47,98,95,87,0.00,0.00,0,0,0,0.20
2013-11-21,67,53,44,47,29,23,87,41,33,0.00,0.00,11,2,13,0.00
2013-11-22,74,54,38,42,27,16,41,36,31,0.00,0.00,13,2,13,0.00
2013-11-23,72,53,36,40,28,16,63,40,32,0.00,0.00,11,2,11,0.00
2013-11-24,63,46,34,35,31,27,79,58,35,0.00,0.00,5,1,6,0.00
2013-11-25,65,45,32,36,31,27,84,60,34,0.00,0.00,5,0,6,0.00
2013-11-26,64,46,35,36,32,29,82,62,34,0.00,0.00,0,0,3,0.00
2013-11-27,66,48,37,40,34,31,86,63,34,0.00,0.00,5,0,6,0.00
2013-11-28,73,51,38,43,35,32,89,58,32,0.00,0.00,5,0,5,0.00
2013-11-29,71,51,37,39,34,31,84,55,32,0.00,0.00,6,0,6,0.00
2013-11-30,70,52,41,40,35,32,83,55,32,0.00,0.00,6,0,6,0.00